Brazoria County Airport
KLBX : rendu visible

Aérodrome :











RETROUVEZ-NOUS SUR...

 
LOGIN :

S'inscrire | Disclaimer

   EN    FR    IT 

 









Légende :    VFR   VFR Marginal   IFR   IFR Intensif   IFR Très Intensif
Visi : 
Plafond : 
>= 8 km
>= 3000ft
5 à 8 km
1000 à 3000 ft
1500m à 5 km
500 à 1000 ft
800 à 1500m
200 à 500 ft
< 800m
< 200 ft
Symboles :   Orages  Brouillard  Fortes neiges  Fortes précipitations  Vent > 20 kt






- Altitude de l'aérodrome : 25 ft


KLBX - Brazoria County

DERNIER METAR :
  • 150353Z AUTO 18008KT 6SM BR FEW010 19/18 A2981 RMK AO2 SLP094 T01890183

METARs EXPIRÉS :
  • 150343Z AUTO 17008KT 6SM BR SCT010 19/18 A2981 RMK AO2 T01890183
  • 150300Z AUTO 00000KT 1/2SM FG VV011 15/14 A2981 RMK AO2 T01500144
  • 150253Z AUTO 00000KT 1SM BR VV011 16/15 A2980 RMK AO2 SLP092 T01560150 53002
  • 150230Z AUTO 12003KT 1 3/4SM BR CLR 16/16 A2980 RMK AO2 T01610156
  • 150153Z AUTO 12003KT 5SM BR CLR 16/15 A2980 RMK AO2 SLP090 T01610150

TAF KLBX
Valide du 15 à 04h jusqu'au 16 à 00h UTC


150423Z 1504/1524 18008KT 6SM BR SCT010
FM151500 18012KT P6SM SCT025 BKN040
FM151800 18015G25KT P6SM BKN045



MET'MAP, la Météo Aéronautique d'un coup d'oeil ! - Copyright ORBIFLY Décembre 2007 - Disclaimer

ORBIFLY MET'MAP TEAM :

Programmation & Développement : Alexandra Zaïnal
Sur une idée originale de : Baudouin d'Aumeries
Assistance à la programmation : Marc-Olivier Méhu
Soutien technique & logistique : Manuel Goepfert

Contact : metmap@orbifly.com




SOURCES & CREDITS :

   NOAA       Earth
Advisory